www.cux-wetter.de
Wetterdaten: Montag, 14.10.2013
Datum Zeit Temp. A. Feuchte A. Luftdruck Regen Wind Richtung Richtung Sonnenschein Solar Taupunkt Windchill Windben
14.10.2013 00:00 7,6 C 86 % 1017,5 hPa 0,0 l/m 9,8 km/h (2 Bft) S-SO 160 0 min 0 W/m 5,4 C 5,1 C 9,8 km/h (2 Bft)
14.10.2013 00:15 7,6 C 86 % 1017,5 hPa 0,0 l/m 9,0 km/h (2 Bft) S-SO 165 0 min 0 W/m 5,4 C 5,6 C 9,0 km/h (2 Bft)
14.10.2013 00:30 7,5 C 86 % 1017,5 hPa 0,0 l/m 13,1 km/h (3 Bft) S 180 0 min 0 W/m 5,3 C 3,0 C 13,1 km/h (3 Bft)
14.10.2013 00:45 7,4 C 86 % 1017,5 hPa 0,0 l/m 11,9 km/h (2 Bft) S 180 0 min 0 W/m 5,2 C 3,6 C 11,9 km/h (2 Bft)
14.10.2013 01:00 7,4 C 86 % 1017,5 hPa 0,0 l/m 9,6 km/h (2 Bft) S-SO 165 0 min 0 W/m 5,2 C 5,0 C 9,6 km/h (2 Bft)
14.10.2013 01:15 7,3 C 86 % 1017,5 hPa 0,0 l/m 8,6 km/h (2 Bft) S-SO 160 0 min 0 W/m 5,1 C 5,6 C 8,6 km/h (2 Bft)
14.10.2013 01:30 7,2 C 85 % 1017,5 hPa 0,0 l/m 8,0 km/h (2 Bft) S 170 0 min 0 W/m 4,9 C 5,9 C 8,0 km/h (2 Bft)
14.10.2013 01:45 7,2 C 85 % 1017,5 hPa 0,0 l/m 8,5 km/h (2 Bft) S 180 0 min 0 W/m 4,9 C 5,5 C 8,5 km/h (2 Bft)
14.10.2013 02:00 6,9 C 86 % 1017,5 hPa 0,0 l/m 9,0 km/h (2 Bft) O-SO 120 0 min 0 W/m 4,7 C 4,9 C 9,0 km/h (2 Bft)
14.10.2013 02:15 7,0 C 86 % 1017,5 hPa 0,0 l/m 6,9 km/h (2 Bft) S 180 0 min 0 W/m 4,8 C 6,6 C 6,9 km/h (2 Bft)
14.10.2013 02:30 7,1 C 87 % 1017,5 hPa 0,0 l/m 8,1 km/h (2 Bft) SO 145 0 min 0 W/m 5,1 C 5,7 C 8,1 km/h (2 Bft)
14.10.2013 02:45 7,1 C 87 % 1017,5 hPa 0,0 l/m 10,6 km/h (2 Bft) S 180 0 min 0 W/m 5,1 C 4,0 C 10,6 km/h (2 Bft)
14.10.2013 03:00 7,2 C 87 % 1017,5 hPa 0,0 l/m 9,8 km/h (2 Bft) S 175 0 min 0 W/m 5,2 C 4,6 C 9,8 km/h (2 Bft)
14.10.2013 03:15 7,3 C 87 % 1017,5 hPa 0,0 l/m 10,3 km/h (2 Bft) S 180 0 min 0 W/m 5,3 C 4,4 C 10,3 km/h (2 Bft)
14.10.2013 03:30 7,3 C 86 % 1016,5 hPa 0,0 l/m 10,0 km/h (2 Bft) S 175 0 min 0 W/m 5,1 C 4,6 C 10,0 km/h (2 Bft)
14.10.2013 03:45 7,3 C 86 % 1016,5 hPa 0,0 l/m 13,3 km/h (3 Bft) S-SO 165 0 min 0 W/m 5,1 C 2,7 C 13,3 km/h (3 Bft)
14.10.2013 04:00 7,3 C 86 % 1016,5 hPa 0,0 l/m 13,1 km/h (3 Bft) S 170 0 min 0 W/m 5,1 C 2,8 C 13,1 km/h (3 Bft)
14.10.2013 04:15 7,4 C 86 % 1016,5 hPa 0,0 l/m 18,6 km/h (3 Bft) S 175 0 min 0 W/m 5,2 C 0,5 C 18,6 km/h (3 Bft)
14.10.2013 04:30 7,4 C 85 % 1016,5 hPa 0,0 l/m 15,6 km/h (3 Bft) S 175 0 min 0 W/m 5,0 C 1,7 C 15,6 km/h (3 Bft)
14.10.2013 04:45 7,5 C 85 % 1016,5 hPa 0,0 l/m 14,4 km/h (3 Bft) S 175 0 min 0 W/m 5,1 C 2,4 C 14,4 km/h (3 Bft)
14.10.2013 05:00 7,5 C 85 % 1015,5 hPa 0,0 l/m 13,7 km/h (3 Bft) S 175 0 min 0 W/m 5,1 C 2,7 C 13,7 km/h (3 Bft)
14.10.2013 05:15 7,5 C 85 % 1015,5 hPa 0,0 l/m 13,0 km/h (3 Bft) S 175 0 min 0 W/m 5,1 C 3,1 C 13,0 km/h (3 Bft)
14.10.2013 05:30 7,5 C 84 % 1015,5 hPa 0,0 l/m 10,9 km/h (2 Bft) S-SO 165 0 min 0 W/m 5,0 C 4,3 C 10,9 km/h (2 Bft)
14.10.2013 05:45 7,5 C 84 % 1015,5 hPa 0,0 l/m 12,9 km/h (3 Bft) S-SO 160 0 min 0 W/m 5,0 C 3,1 C 12,9 km/h (3 Bft)
14.10.2013 06:00 7,5 C 84 % 1015,5 hPa 0,0 l/m 14,1 km/h (3 Bft) S 175 0 min 0 W/m 5,0 C 2,5 C 14,1 km/h (3 Bft)
14.10.2013 06:15 7,4 C 84 % 1015,5 hPa 0,0 l/m 11,6 km/h (2 Bft) S 175 0 min 0 W/m 4,9 C 3,7 C 11,6 km/h (2 Bft)
14.10.2013 06:30 7,5 C 85 % 1015,5 hPa 0,0 l/m 10,7 km/h (2 Bft) S-SO 160 0 min 0 W/m 5,1 C 4,4 C 10,7 km/h (2 Bft)
14.10.2013 06:45 7,5 C 85 % 1015,5 hPa 0,0 l/m 12,9 km/h (3 Bft) S-SO 155 0 min 0 W/m 5,1 C 3,1 C 12,9 km/h (3 Bft)
14.10.2013 07:00 7,6 C 85 % 1015,5 hPa 0,0 l/m 9,9 km/h (2 Bft) S 170 0 min 0 W/m 5,2 C 5,0 C 9,9 km/h (2 Bft)
14.10.2013 07:15 7,6 C 85 % 1015,5 hPa 0,0 l/m 14,3 km/h (3 Bft) S-SO 160 0 min 0 W/m 5,2 C 2,6 C 14,3 km/h (3 Bft)
14.10.2013 07:30 7,6 C 85 % 1015,5 hPa 0,0 l/m 14,9 km/h (3 Bft) S-SO 155 0 min 0 W/m 5,2 C 2,3 C 14,9 km/h (3 Bft)
14.10.2013 07:45 7,7 C 85 % 1015,5 hPa 0,0 l/m 14,6 km/h (3 Bft) S-SO 150 0 min 0 W/m 5,3 C 2,5 C 14,6 km/h (3 Bft)
14.10.2013 08:00 7,7 C 85 % 1015,5 hPa 0,0 l/m 11,5 km/h (2 Bft) S-SO 160 0 min 0 W/m 5,3 C 4,1 C 11,5 km/h (2 Bft)
14.10.2013 08:15 7,8 C 85 % 1015,5 hPa 0,0 l/m 9,4 km/h (2 Bft) S-SO 155 0 min 0 W/m 5,4 C 5,6 C 9,4 km/h (2 Bft)
14.10.2013 08:30 7,8 C 85 % 1015,5 hPa 0,0 l/m 11,7 km/h (2 Bft) S-SO 150 0 min 0 W/m 5,4 C 4,1 C 11,7 km/h (2 Bft)
14.10.2013 08:45 8,0 C 85 % 1015,5 hPa 0,0 l/m 11,3 km/h (2 Bft) S 175 0 min 0 W/m 5,6 C 4,6 C 11,3 km/h (2 Bft)
14.10.2013 09:00 8,0 C 85 % 1015,5 hPa 0,0 l/m 11,3 km/h (2 Bft) S 175 0 min 0 W/m 5,6 C 4,6 C 11,3 km/h (2 Bft)
14.10.2013 09:15 8,6 C 86 % 1015,5 hPa 0,0 l/m 11,3 km/h (2 Bft) S 175 0 min 0 W/m 6,4 C 5,3 C 11,3 km/h (2 Bft)
14.10.2013 09:30 8,4 C 84 % 1015,5 hPa 0,0 l/m 11,3 km/h (2 Bft) S 175 0 min 0 W/m 5,9 C 5,1 C 11,3 km/h (2 Bft)
14.10.2013 09:45 8,4 C 84 % 1015,5 hPa 0,0 l/m 14,2 km/h (3 Bft) S 170 0 min 0 W/m 5,9 C 3,6 C 14,2 km/h (3 Bft)
14.10.2013 10:00 8,5 C 84 % 1015,5 hPa 0,0 l/m 8,3 km/h (2 Bft) S 180 0 min 0 W/m 6,0 C 7,1 C 8,3 km/h (2 Bft)
14.10.2013 10:15 8,6 C 84 % 1015,5 hPa 0,0 l/m 8,3 km/h (2 Bft) S 180 0 min 0 W/m 6,1 C 7,2 C 8,3 km/h (2 Bft)
14.10.2013 10:30 8,8 C 83 % 1015,5 hPa 0,0 l/m 11,6 km/h (2 Bft) S 185 0 min 0 W/m 6,1 C 5,3 C 11,6 km/h (2 Bft)
14.10.2013 10:45 8,8 C 83 % 1015,5 hPa 0,0 l/m 13,4 km/h (3 Bft) S-SO 165 0 min 0 W/m 6,1 C 4,4 C 13,4 km/h (3 Bft)
14.10.2013 11:00 8,9 C 83 % 1015,5 hPa 0,0 l/m 10,0 km/h (2 Bft) S-SO 160 0 min 0 W/m 6,2 C 6,4 C 10,0 km/h (2 Bft)
14.10.2013 11:15 9,3 C 83 % 1015,5 hPa 0,0 l/m 10,0 km/h (2 Bft) S-SO 160 0 min 0 W/m 6,6 C 6,8 C 10,0 km/h (2 Bft)
14.10.2013 11:30 10,0 C 83 % 1015,5 hPa 0,0 l/m 10,0 km/h (2 Bft) S-SO 160 0 min 0 W/m 7,2 C 7,6 C 10,0 km/h (2 Bft)
14.10.2013 11:45 10,7 C 82 % 1015,5 hPa 0,0 l/m 10,0 km/h (2 Bft) S-SO 160 0 min 0 W/m 7,8 C 8,4 C 10,0 km/h (2 Bft)
14.10.2013 12:00 11,2 C 80 % 1015,5 hPa 0,0 l/m 10,0 km/h (2 Bft) S-SO 160 0 min 0 W/m 7,9 C 8,9 C 10,0 km/h (2 Bft)
14.10.2013 12:15 11,7 C 79 % 1015,5 hPa 0,0 l/m 10,0 km/h (2 Bft) S-SO 160 0 min 0 W/m 8,2 C 9,5 C 10,0 km/h (2 Bft)
14.10.2013 12:30 12,1 C 78 % 1015,5 hPa 0,0 l/m 10,0 km/h (2 Bft) S-SO 160 0 min 0 W/m 8,4 C 9,9 C 10,0 km/h (2 Bft)
14.10.2013 12:45 12,6 C 77 % 1015,5 hPa 0,0 l/m 10,0 km/h (2 Bft) S-SO 160 0 min 0 W/m 8,7 C 10,5 C 10,0 km/h (2 Bft)
14.10.2013 13:00 13,0 C 76 % 1015,5 hPa 0,0 l/m 5,0 km/h (1 Bft) SO 140 0 min 0 W/m 8,9 C 13,0 C 5,0 km/h (1 Bft)
14.10.2013 13:15 13,4 C 74 % 1015,5 hPa 0,0 l/m 5,0 km/h (1 Bft) SO 140 0 min 0 W/m 8,9 C 13,4 C 5,0 km/h (1 Bft)
14.10.2013 13:30 13,8 C 74 % 1014,5 hPa 0,0 l/m 5,0 km/h (1 Bft) SO 140 0 min 0 W/m 9,2 C 13,8 C 5,0 km/h (1 Bft)
14.10.2013 13:45 14,1 C 73 % 1014,5 hPa 0,0 l/m 13,4 km/h (3 Bft) S-SO 150 0 min 0 W/m 9,3 C 10,7 C 13,4 km/h (3 Bft)
14.10.2013 14:00 14,2 C 72 % 1014,5 hPa 0,0 l/m 15,5 km/h (3 Bft) S 180 0 min 0 W/m 9,2 C 10,1 C 15,5 km/h (3 Bft)
14.10.2013 14:15 13,9 C 72 % 1014,5 hPa 0,0 l/m 11,1 km/h (2 Bft) S-SO 165 0 min 0 W/m 8,9 C 11,4 C 11,1 km/h (2 Bft)
14.10.2013 14:30 13,8 C 73 % 1014,5 hPa 0,0 l/m 13,5 km/h (3 Bft) S-SO 160 0 min 0 W/m 9,0 C 10,3 C 13,5 km/h (3 Bft)
14.10.2013 14:45 14,4 C 72 % 1014,5 hPa 0,0 l/m 13,5 km/h (3 Bft) S-SO 160 0 min 0 W/m 9,4 C 11,0 C 13,5 km/h (3 Bft)
14.10.2013 15:00 14,6 C 71 % 1014,5 hPa 0,0 l/m 19,6 km/h (3 Bft) S-SO 150 0 min 0 W/m 9,4 C 9,3 C 19,6 km/h (3 Bft)
14.10.2013 15:15 14,6 C 70 % 1014,5 hPa 0,0 l/m 19,6 km/h (3 Bft) S-SO 150 0 min 0 W/m 9,2 C 9,3 C 19,6 km/h (3 Bft)
14.10.2013 15:30 14,6 C 70 % 1014,5 hPa 0,0 l/m 21,8 km/h (4 Bft) S 185 0 min 0 W/m 9,2 C 8,8 C 21,8 km/h (4 Bft)
14.10.2013 15:45 14,5 C 70 % 1014,5 hPa 0,0 l/m 17,2 km/h (3 Bft) S 170 0 min 0 W/m 9,1 C 9,9 C 17,2 km/h (3 Bft)
14.10.2013 16:00 14,4 C 70 % 1014,5 hPa 0,0 l/m 22,6 km/h (4 Bft) N 360 0 min 0 W/m 9,0 C 8,3 C 22,6 km/h (4 Bft)
14.10.2013 16:15 14,3 C 70 % 1014,5 hPa 0,0 l/m 15,3 km/h (3 Bft) S-SO 160 0 min 0 W/m 8,9 C 10,2 C 15,3 km/h (3 Bft)
14.10.2013 16:30 14,0 C 72 % 1014,5 hPa 0,0 l/m 17,5 km/h (3 Bft) S-SO 160 0 min 0 W/m 9,0 C 9,2 C 17,5 km/h (3 Bft)
14.10.2013 16:45 13,7 C 71 % 1013,5 hPa 0,0 l/m 14,5 km/h (3 Bft) S-SO 160 0 min 0 W/m 8,5 C 9,8 C 14,5 km/h (3 Bft)
14.10.2013 16:59 13,5 C 72 % 1013,5 hPa 0,0 l/m 19,0 km/h (3 Bft) S-SO 165 0 min 0 W/m 8,6 C 8,1 C 19,0 km/h (3 Bft)
14.10.2013 17:15 13,2 C 73 % 1013,5 hPa 0,0 l/m 13,1 km/h (3 Bft) S 170 0 min 0 W/m 8,5 C 9,7 C 13,1 km/h (3 Bft)
14.10.2013 17:30 12,9 C 74 % 1013,5 hPa 0,0 l/m 16,5 km/h (3 Bft) S 170 0 min 0 W/m 8,4 C 8,1 C 16,5 km/h (3 Bft)
14.10.2013 17:45 12,4 C 75 % 1013,5 hPa 0,0 l/m 6,0 km/h (2 Bft) S-SO 160 0 min 0 W/m 8,1 C 12,4 C 6,0 km/h (2 Bft)
14.10.2013 17:59 12,0 C 77 % 1013,5 hPa 0,0 l/m 5,3 km/h (1 Bft) S-SO 160 0 min 0 W/m 8,1 C 12,0 C 5,3 km/h (1 Bft)
14.10.2013 18:15 11,8 C 78 % 1013,5 hPa 0,0 l/m 6,3 km/h (2 Bft) S-SO 160 0 min 0 W/m 8,1 C 11,8 C 6,3 km/h (2 Bft)
14.10.2013 18:30 11,5 C 79 % 1013,5 hPa 0,0 l/m 6,1 km/h (2 Bft) S 170 0 min 0 W/m 8,0 C 11,5 C 6,1 km/h (2 Bft)
14.10.2013 18:45 11,3 C 80 % 1013,5 hPa 0,0 l/m 6,1 km/h (2 Bft) S 170 0 min 0 W/m 8,0 C 11,3 C 6,1 km/h (2 Bft)
14.10.2013 19:00 11,1 C 81 % 1013,5 hPa 0,0 l/m 7,6 km/h (2 Bft) S-SO 165 0 min 0 W/m 8,0 C 10,3 C 7,6 km/h (2 Bft)
14.10.2013 19:15 10,9 C 81 % 1013,5 hPa 0,0 l/m 7,6 km/h (2 Bft) S-SO 165 0 min 0 W/m 7,8 C 10,1 C 7,6 km/h (2 Bft)
14.10.2013 19:30 10,8 C 81 % 1013,5 hPa 0,0 l/m 5,2 km/h (1 Bft) S-SO 155 0 min 0 W/m 7,7 C 10,8 C 5,2 km/h (1 Bft)
14.10.2013 19:45 10,7 C 82 % 1013,5 hPa 0,0 l/m 0,4 km/h (0 Bft) S-SO 160 0 min 0 W/m 7,8 C 10,7 C 0,4 km/h (0 Bft)
14.10.2013 20:00 10,6 C 82 % 1013,5 hPa 0,0 l/m 0,4 km/h (0 Bft) S-SO 160 0 min 0 W/m 7,7 C 10,6 C 0,4 km/h (0 Bft)
14.10.2013 20:15 10,6 C 82 % 1013,5 hPa 0,0 l/m 0,4 km/h (0 Bft) S-SO 160 0 min 0 W/m 7,7 C 10,6 C 0,4 km/h (0 Bft)
14.10.2013 20:30 10,5 C 83 % 1013,5 hPa 0,0 l/m 0,4 km/h (0 Bft) S-SO 160 0 min 0 W/m 7,7 C 10,5 C 0,4 km/h (0 Bft)
14.10.2013 20:44 10,4 C 83 % 1013,5 hPa 0,0 l/m 0,4 km/h (0 Bft) S-SO 160 0 min 0 W/m 7,6 C 10,4 C 0,4 km/h (0 Bft)
14.10.2013 21:00 10,4 C 83 % 1013,5 hPa 0,0 l/m 0,4 km/h (0 Bft) S-SO 160 0 min 0 W/m 7,6 C 10,4 C 0,4 km/h (0 Bft)
14.10.2013 21:15 10,4 C 83 % 1013,5 hPa 0,0 l/m 0,4 km/h (0 Bft) S-SO 160 0 min 0 W/m 7,6 C 10,4 C 0,4 km/h (0 Bft)
14.10.2013 21:30 10,4 C 83 % 1013,5 hPa 0,0 l/m 0,4 km/h (0 Bft) S-SO 160 0 min 0 W/m 7,6 C 10,4 C 0,4 km/h (0 Bft)
14.10.2013 21:44 10,3 C 83 % 1012,5 hPa 0,0 l/m 0,4 km/h (0 Bft) S-SO 160 0 min 0 W/m 7,5 C 10,3 C 0,4 km/h (0 Bft)
14.10.2013 22:00 10,2 C 84 % 1012,5 hPa 0,0 l/m 0,4 km/h (0 Bft) S-SO 160 0 min 0 W/m 7,6 C 10,2 C 0,4 km/h (0 Bft)
14.10.2013 22:15 10,1 C 84 % 1012,5 hPa 0,0 l/m 7,4 km/h (2 Bft) S-SO 150 0 min 0 W/m 7,5 C 9,4 C 7,4 km/h (2 Bft)
14.10.2013 22:30 10,0 C 84 % 1012,5 hPa 0,0 l/m 7,4 km/h (2 Bft) S-SO 150 0 min 0 W/m 7,4 C 9,3 C 7,4 km/h (2 Bft)
14.10.2013 22:45 9,9 C 85 % 1012,5 hPa 0,0 l/m 7,4 km/h (2 Bft) S-SO 150 0 min 0 W/m 7,5 C 9,2 C 7,4 km/h (2 Bft)
14.10.2013 23:00 9,8 C 85 % 1012,5 hPa 0,0 l/m 7,4 km/h (2 Bft) S-SO 150 0 min 0 W/m 7,4 C 9,1 C 7,4 km/h (2 Bft)
14.10.2013 23:15 9,6 C 85 % 1012,5 hPa 0,0 l/m 7,0 km/h (2 Bft) S 170 0 min 0 W/m 7,2 C 9,2 C 7,0 km/h (2 Bft)
14.10.2013 23:29 9,6 C 86 % 1012,5 hPa 0,0 l/m 7,0 km/h (2 Bft) S 170 0 min 0 W/m 7,4 C 9,2 C 7,0 km/h (2 Bft)
14.10.2013 23:45 9,5 C 86 % 1012,5 hPa 0,0 l/m 7,0 km/h (2 Bft) S 170 0 min 0 W/m 7,3 C 9,1 C 7,0 km/h (2 Bft)
_ Min-Zeit 02:00 15:15 21:44 - 19:45 - - - - 02:00 04:15 19:45
Minimum _ 6,9 C 70 % 1012,5 hPa - 0,4 km/h (0 Bft) - - - - 4,7 C 0,5 C 0,4 km/h (0 Bft)
_ Max-Zeit 15:00 02:30 00:00 00:00 16:00 - - 00:00 00:00 14:45 13:30 16:00
Maximum _ 14,6 C 87 % 1017,5 hPa 0,0 l/m 22,6 km/h
N (4 Bft)
- - 0 min 0 W/m 9,4 C 13,8 C 22,6 km/h
N (4 Bft)
Durchschnitt _ 9,9 C 81 % 1015,0 hPa #0,0 l/m 10,1 km/h (2 Bft) S-SO - #0 min. 0 W/m 6,9 C 7,4 C 10,1 km/h (2 Bft)
copyright by Holger Just